Time;durP1;ratioP1;P1;durP2;ratioP2;P2;SDS_P1;SDS_P2;PMS_P1;PMS_P2;Temp;Humidity;BMP_temperature;BMP_pressure;BME280_temperature;BME280_humidity;BME280_pressure;Samples;Min_cycle;Max_cycle;Signal;HPM_P1;HPM_P2
2021/10/15 00:01:10;;;;;;;8.28;6.62;;;;;;;5.70;94.84;101640.80;1736019;81;20842;-43
2021/10/15 00:03:36;;;;;;;13.85;7.35;;;;;;;5.72;94.75;101639.12;1735995;82;20925;-43
2021/10/15 00:06:03;;;;;;;11.73;6.97;;;;;;;5.73;94.66;101646.00;1749516;80;20983;-43
2021/10/15 00:08:29;;;;;;;9.68;7.50;;;;;;;5.73;94.58;101645.12;1750082;82;21166;-43
2021/10/15 00:10:55;;;;;;;9.13;6.85;;;;;;;5.72;94.57;101645.55;1750284;82;20917;-44
2021/10/15 00:13:23;;;;;;;7.45;6.40;;;;;;;5.71;94.60;101650.24;1750386;82;21420;-43
2021/10/15 00:15:49;;;;;;;11.57;7.40;;;;;;;5.70;94.60;101645.94;1750300;82;21007;-42
2021/10/15 00:18:17;;;;;;;16.25;7.40;;;;;;;5.71;94.67;101641.66;1750004;82;20991;-43
2021/10/15 00:20:44;;;;;;;9.63;7.20;;;;;;;5.69;94.79;101642.04;1750079;82;21202;-43
2021/10/15 00:23:10;;;;;;;8.00;6.47;;;;;;;5.67;94.88;101634.29;1750055;82;21446;-43
2021/10/15 00:25:37;;;;;;;8.28;6.72;;;;;;;5.68;94.92;101636.45;1750095;82;20929;-43
2021/10/15 00:28:04;;;;;;;9.85;6.92;;;;;;;5.69;94.96;101642.92;1750212;81;21161;-43
2021/10/15 00:30:30;;;;;;;11.08;6.83;;;;;;;5.68;95.00;101643.73;1722666;82;20941;-43
2021/10/15 00:32:57;;;;;;;10.08;7.25;;;;;;;5.68;94.98;101646.30;1750229;82;21078;-43
2021/10/15 00:35:23;;;;;;;8.33;6.92;;;;;;;5.68;94.97;101650.16;1750272;82;20877;-43
2021/10/15 00:37:50;;;;;;;10.90;6.92;;;;;;;5.68;94.95;101654.44;1722862;82;21386;-45
2021/10/15 00:40:17;;;;;;;11.68;7.58;;;;;;;5.67;95.15;101654.84;1750138;82;20901;-44
2021/10/15 00:42:44;;;;;;;9.73;7.20;;;;;;;5.67;95.21;101652.27;1750394;82;21390;-43
2021/10/15 00:45:11;;;;;;;11.88;7.40;;;;;;;5.65;95.28;101655.23;1750112;81;21122;-43
2021/10/15 00:47:37;;;;;;;10.95;6.22;;;;;;;5.66;95.33;101655.68;1750206;82;20845;-43
2021/10/15 00:50:05;;;;;;;12.28;6.90;;;;;;;5.66;95.32;101658.25;1750276;80;20932;-43
2021/10/15 00:52:33;;;;;;;16.70;7.87;;;;;;;5.66;95.36;101654.39;1723193;82;21019;-44
2021/10/15 00:54:59;;;;;;;15.43;7.92;;;;;;;5.68;96.09;101654.00;1750110;82;20967;-44
2021/10/15 00:57:26;;;;;;;33.83;9.40;;;;;;;5.71;96.66;101646.80;1750470;82;21115;-44
2021/10/15 00:59:53;;;;;;;25.10;8.00;;;;;;;5.73;96.86;101647.28;1750096;82;20884;-44
2021/10/15 01:02:19;;;;;;;30.60;8.35;;;;;;;5.73;96.94;101642.15;1750357;80;21023;-44
2021/10/15 01:04:46;;;;;;;21.87;9.28;;;;;;;5.72;97.18;101648.52;1750003;81;20933;-43
2021/10/15 01:07:13;;;;;;;14.85;8.45;;;;;;;5.67;97.59;101640.71;1750166;82;20932;-44
2021/10/15 01:09:41;;;;;;;21.52;7.65;;;;;;;5.67;97.59;101640.71;1750270;82;21935;-43
2021/10/15 01:12:09;;;;;;;29.23;9.13;;;;;;;5.68;97.82;101642.44;1750103;82;20968;-44
2021/10/15 01:14:37;;;;;;;31.27;8.35;;;;;;;5.67;97.98;101644.56;1722914;82;21423;-44
2021/10/15 01:17:04;;;;;;;18.05;6.92;;;;;;;5.65;98.09;101644.95;1750206;82;20987;-44
2021/10/15 01:19:31;;;;;;;30.70;7.60;;;;;;;5.66;98.00;101638.98;1750147;82;20881;-44
2021/10/15 01:22:03;;;;;;;39.83;7.78;;;;;;;5.67;97.89;101638.14;1750155;82;21191;-44
2021/10/15 01:24:31;;;;;;;31.48;8.10;;;;;;;5.68;98.01;101641.16;1750223;82;20956;-44
2021/10/15 01:27:07;;;;;;;41.48;8.55;;;;;;;5.70;98.07;101651.48;1750051;82;21285;-44
2021/10/15 01:29:34;;;;;;;32.60;8.00;;;;;;;5.69;98.09;101648.47;1750027;82;21419;-44
2021/10/15 01:32:00;;;;;;;42.90;9.73;;;;;;;5.69;98.26;101653.20;1750181;82;20936;-43
2021/10/15 01:34:27;;;;;;;65.05;9.80;;;;;;;5.70;98.14;101647.22;1750428;82;21103;-44
2021/10/15 01:36:54;;;;;;;37.58;8.63;;;;;;;5.72;97.80;101638.25;1749992;81;20881;-44
2021/10/15 01:39:20;;;;;;;73.95;12.45;;;;;;;5.72;97.68;101643.39;1750499;82;20976;-44
2021/10/15 01:41:47;;;;;;;46.18;10.10;;;;;;;5.70;97.49;101644.66;1750172;82;21058;-42
2021/10/15 01:44:13;;;;;;;37.53;10.10;;;;;;;5.70;97.24;101643.37;1750433;82;20991;-44
2021/10/15 01:46:40;;;;;;;22.90;7.87;;;;;;;5.71;96.69;101640.37;1722583;82;21156;-43
2021/10/15 01:49:07;;;;;;;42.85;9.28;;;;;;;5.70;96.32;101634.78;1749925;80;20881;-44
2021/10/15 01:51:34;;;;;;;33.60;8.40;;;;;;;5.68;95.94;101637.30;1722744;82;21019;-44
2021/10/15 01:54:00;;;;;;;44.48;9.80;;;;;;;5.66;95.65;101647.13;1749980;82;22017;-43
2021/10/15 01:56:26;;;;;;;35.38;8.30;;;;;;;5.61;95.61;101647.02;1750599;82;20892;-43
2021/10/15 01:58:53;;;;;;;30.27;7.78;;;;;;;5.57;95.44;101643.94;1750188;82;21133;-43
2021/10/15 02:01:20;;;;;;;32.73;9.30;;;;;;;5.49;95.53;101646.77;1750449;82;20932;-44
2021/10/15 02:03:46;;;;;;;47.93;10.05;;;;;;;5.41;95.46;101647.44;1750099;82;20920;-44
2021/10/15 02:06:14;;;;;;;22.73;8.28;;;;;;;5.32;95.34;101649.42;1750109;81;21474;-44
2021/10/15 02:08:42;;;;;;;21.15;7.97;;;;;;;5.23;95.15;101646.63;1750253;82;21395;-44
2021/10/15 02:11:09;;;;;;;19.80;8.08;;;;;;;5.16;95.17;101658.88;1750327;80;21924;-44
2021/10/15 02:13:36;;;;;;;21.35;7.12;;;;;;;5.08;95.13;101656.13;1750064;80;21447;-44
2021/10/15 02:16:03;;;;;;;23.15;8.28;;;;;;;5.00;95.48;101660.22;1750338;82;21529;-44
2021/10/15 02:18:30;;;;;;;25.77;8.80;;;;;;;4.95;96.05;101655.39;1750018;81;20932;-44
2021/10/15 02:20:56;;;;;;;20.50;7.05;;;;;;;4.89;96.38;101657.39;1750075;82;20929;-44
2021/10/15 02:23:24;;;;;;;12.98;6.97;;;;;;;4.81;96.59;101653.78;1750023;81;21232;-44
2021/10/15 02:25:50;;;;;;;51.77;10.32;;;;;;;4.74;96.87;101662.58;1722320;82;20881;-44
2021/10/15 02:28:17;;;;;;;19.62;7.47;;;;;;;4.64;97.03;101664.48;1750077;82;20892;-44
2021/10/15 02:30:44;;;;;;;39.30;8.85;;;;;;;4.55;97.28;101662.97;1750011;82;20944;-44
2021/10/15 02:33:11;;;;;;;29.15;7.62;;;;;;;4.48;97.52;101664.50;1750166;82;20920;-44
2021/10/15 02:35:37;;;;;;;23.85;7.40;;;;;;;4.42;97.89;101668.16;1750032;82;21120;-44
2021/10/15 02:38:04;;;;;;;15.30;7.40;;;;;;;4.35;98.08;101662.42;1722816;82;20978;-44
2021/10/15 02:40:32;;;;;;;15.32;7.22;;;;;;;4.23;98.22;101659.12;1750140;82;20968;-44
2021/10/15 02:42:59;;;;;;;16.73;7.10;;;;;;;4.13;98.24;101659.27;1749993;82;20964;-43
2021/10/15 02:45:26;;;;;;;10.43;7.95;;;;;;;4.02;98.25;101662.82;1750160;82;20850;-43
2021/10/15 02:47:52;;;;;;;11.68;7.85;;;;;;;3.76;98.64;101662.09;1750254;82;21180;-44
2021/10/15 02:50:18;;;;;;;9.30;6.92;;;;;;;3.76;98.64;101662.09;1749946;81;21071;-43
2021/10/15 02:52:45;;;;;;;13.98;6.42;;;;;;;3.65;98.58;101659.22;1749965;81;20904;-44
2021/10/15 02:55:11;;;;;;;14.93;7.42;;;;;;;3.56;98.70;101661.97;1750330;82;20948;-43
2021/10/15 02:57:39;;;;;;;18.20;8.05;;;;;;;3.33;98.88;101653.58;1750175;82;20983;-44
2021/10/15 03:00:07;;;;;;;16.05;7.65;;;;;;;3.33;98.88;101653.58;1722653;82;20967;-44
2021/10/15 03:02:34;;;;;;;18.90;7.35;;;;;;;3.23;99.01;101654.13;1749909;80;21415;-44
2021/10/15 03:05:00;;;;;;;27.45;9.10;;;;;;;3.13;99.24;101658.09;1750148;81;21347;-43
2021/10/15 03:07:27;;;;;;;27.48;8.08;;;;;;;3.05;99.44;101662.95;1749977;82;21019;-41
2021/10/15 03:09:54;;;;;;;23.95;8.35;;;;;;;2.98;99.71;101662.31;1750118;82;20920;-44
2021/10/15 03:12:20;;;;;;;21.80;8.08;;;;;;;2.90;99.90;101658.61;1750077;82;21706;-45
2021/10/15 03:14:48;;;;;;;15.70;8.03;;;;;;;2.83;100.00;101662.68;1750181;82;20905;-47
2021/10/15 03:17:15;;;;;;;12.60;7.67;;;;;;;2.77;100.00;101659.50;1749990;82;21007;-44
2021/10/15 03:19:42;;;;;;;16.82;7.80;;;;;;;2.72;100.00;101666.16;1750073;82;20893;-43
2021/10/15 03:22:09;;;;;;;12.60;6.75;;;;;;;2.66;100.00;101668.09;1750029;81;20999;-43
2021/10/15 03:24:35;;;;;;;14.85;8.08;;;;;;;2.59;100.00;101669.56;1750193;82;21119;-44
2021/10/15 03:27:02;;;;;;;13.65;8.03;;;;;;;2.52;100.00;101671.47;1750001;82;20888;-44
2021/10/15 03:29:29;;;;;;;15.75;8.33;;;;;;;2.44;100.00;101674.17;1750209;82;20976;-43
2021/10/15 03:31:55;;;;;;;18.77;8.78;;;;;;;2.37;100.00;101670.92;1750351;82;20966;-43
2021/10/15 03:34:22;;;;;;;23.20;8.10;;;;;;;2.31;100.00;101674.16;1750335;82;21403;-43
2021/10/15 03:36:48;;;;;;;21.50;8.65;;;;;;;2.24;100.00;101682.01;1750301;82;21778;-43
2021/10/15 03:39:15;;;;;;;24.20;9.58;;;;;;;2.17;100.00;101681.73;1749927;82;21459;-43
2021/10/15 03:41:41;;;;;;;18.32;8.08;;;;;;;2.08;100.00;101678.04;1750085;82;20929;-43
2021/10/15 03:44:08;;;;;;;24.07;9.83;;;;;;;2.04;100.00;101680.02;1749952;82;21003;-43
2021/10/15 03:46:34;;;;;;;19.70;8.58;;;;;;;2.00;100.00;101677.75;1750212;81;20873;-43
2021/10/15 03:49:01;;;;;;;18.90;10.75;;;;;;;1.97;100.00;101686.59;1750097;81;21208;-43
2021/10/15 03:51:27;;;;;;;21.70;9.90;;;;;;;1.90;100.00;101687.57;1750051;82;20893;-43
2021/10/15 03:53:53;;;;;;;41.23;12.45;;;;;;;1.82;100.00;101691.11;1750047;82;20897;-44
2021/10/15 03:56:20;;;;;;;27.87;10.85;;;;;;;1.79;100.00;101689.72;1750064;82;21015;-44
2021/10/15 03:58:46;;;;;;;41.33;11.03;;;;;;;1.76;100.00;101699.41;1750109;82;20838;-42
2021/10/15 04:01:13;;;;;;;44.27;10.78;;;;;;;1.71;100.00;101699.25;1749977;82;21135;-44
2021/10/15 04:03:39;;;;;;;21.40;10.82;;;;;;;1.66;100.00;101698.60;1750006;81;21553;-43
2021/10/15 04:06:05;;;;;;;23.98;10.05;;;;;;;1.64;100.00;101704.95;1725598;81;21512;-43
2021/10/15 04:08:32;;;;;;;20.90;9.15;;;;;;;1.58;100.00;101709.40;1757702;81;20947;-43
2021/10/15 04:11:00;;;;;;;18.40;9.03;;;;;;;1.54;100.00;101707.94;1758250;81;20944;-44
2021/10/15 04:13:28;;;;;;;18.95;8.38;;;;;;;1.48;100.00;101707.28;1757866;81;22084;-43
2021/10/15 04:15:56;;;;;;;16.62;8.08;;;;;;;1.43;100.00;101706.23;1754666;81;21577;-44
2021/10/15 04:18:23;;;;;;;17.87;7.67;;;;;;;1.36;100.00;101708.09;1757722;81;21038;-43
2021/10/15 04:21:51;;;;;;;15.08;7.55;;;;;;;1.32;100.00;101710.91;1816366;79;23198;-43
2021/10/15 04:24:17;;;;;;;21.75;8.23;;;;;;;1.26;100.00;101711.95;1789839;80;20983;-43
2021/10/15 04:26:44;;;;;;;12.18;7.45;;;;;;;1.25;100.00;101716.17;1789499;80;21953;-43
2021/10/15 04:29:11;;;;;;;20.92;8.35;;;;;;;1.24;100.00;101713.58;1789371;80;21026;-44
2021/10/15 04:31:37;;;;;;;12.90;6.75;;;;;;;1.23;100.00;101725.45;1789487;80;20987;-44
2021/10/15 04:34:03;;;;;;;32.67;6.70;;;;;;;1.22;100.00;101724.98;1789406;80;20986;-43
2021/10/15 04:36:31;;;;;;;17.27;6.70;;;;;;;1.23;100.00;101726.72;1789917;80;20845;-43
2021/10/15 04:38:58;;;;;;;24.57;5.90;;;;;;;1.26;100.00;101728.53;1789546;80;21095;-43
2021/10/15 04:41:24;;;;;;;35.38;6.92;;;;;;;1.26;100.00;101726.88;1789294;80;20952;-44
2021/10/15 04:43:51;;;;;;;30.88;6.62;;;;;;;1.27;100.00;101723.90;1789481;80;20908;-43
2021/10/15 04:46:18;;;;;;;45.55;7.33;;;;;;;1.31;100.00;101735.97;1789930;80;20908;-43
2021/10/15 04:48:44;;;;;;;46.48;8.33;;;;;;;1.37;100.00;101737.91;1789511;80;20920;-43
2021/10/15 04:51:10;;;;;;;67.15;9.18;;;;;;;1.39;100.00;101746.09;1775095;80;21139;-44
2021/10/15 04:53:37;;;;;;;58.78;10.08;;;;;;;1.44;100.00;101742.43;1698423;81;21080;-43
2021/10/15 04:56:04;;;;;;;56.37;9.25;;;;;;;1.50;100.00;101740.11;1721510;83;20995;-43
2021/10/15 04:58:30;;;;;;;27.60;6.85;;;;;;;1.57;100.00;101741.23;1721583;83;20960;-44
2021/10/15 05:00:56;;;;;;;33.83;7.35;;;;;;;1.63;100.00;101740.61;1721222;83;20920;-44
2021/10/15 05:03:23;;;;;;;35.83;7.30;;;;;;;1.68;100.00;101741.27;1721259;83;21134;-41
2021/10/15 05:05:50;;;;;;;16.45;6.40;;;;;;;1.77;100.00;101740.75;1721335;83;20900;-43
2021/10/15 05:08:20;;;;;;;22.67;6.53;;;;;;;1.86;100.00;101742.37;1721611;83;21495;-43
2021/10/15 05:10:46;;;;;;;18.10;6.58;;;;;;;1.95;100.00;101741.85;1721406;83;20920;-44
2021/10/15 05:13:17;;;;;;;38.05;8.30;;;;;;;2.05;100.00;101739.63;1721409;83;21030;-43
2021/10/15 05:15:45;;;;;;;16.42;6.95;;;;;;;2.15;100.00;101743.01;1721397;83;20936;-43
2021/10/15 05:18:13;;;;;;;10.13;6.28;;;;;;;2.29;100.00;101748.63;1692841;83;21035;-43
2021/10/15 05:20:41;;;;;;;22.62;8.65;;;;;;;2.40;100.00;101744.75;1722674;83;21066;-43
2021/10/15 05:23:09;;;;;;;43.87;11.78;;;;;;;2.64;100.00;101744.28;1724893;81;20995;-43
2021/10/15 05:25:35;;;;;;;78.07;11.97;;;;;;;2.64;100.00;101744.28;1724733;83;20964;-43
2021/10/15 05:28:03;;;;;;;64.53;14.30;;;;;;;2.77;100.00;101751.57;1724925;83;21140;-43
2021/10/15 05:30:29;;;;;;;78.40;16.17;;;;;;;3.06;100.00;101752.97;1724832;83;20962;-43
2021/10/15 05:32:58;;;;;;;87.57;17.50;;;;;;;3.06;100.00;101752.97;1724475;83;21457;-43
2021/10/15 05:35:24;;;;;;;88.65;14.73;;;;;;;3.26;100.00;101753.61;1724172;83;21525;-43
2021/10/15 05:37:51;;;;;;;37.70;11.28;;;;;;;3.42;100.00;101750.28;1697392;83;21005;-44
2021/10/15 05:40:17;;;;;;;57.70;13.62;;;;;;;3.58;100.00;101751.63;1695744;83;21124;-43
2021/10/15 05:42:48;;;;;;;37.85;12.15;;;;;;;3.72;100.00;101755.50;1697381;83;20956;-43
2021/10/15 05:45:16;;;;;;;20.25;10.65;;;;;;;3.93;100.00;101762.50;1724371;83;20911;-43
2021/10/15 05:47:43;;;;;;;35.73;11.38;;;;;;;4.09;100.00;101758.69;1723942;83;20916;-43
2021/10/15 05:50:11;;;;;;;17.15;10.68;;;;;;;4.26;100.00;101759.17;1724578;83;21041;-43
2021/10/15 05:52:42;;;;;;;25.45;11.10;;;;;;;4.45;100.00;101752.45;1695476;83;21904;-43
2021/10/15 06:00:24;;;;;;;15.68;10.38;;;;;;;4.89;100.00;101760.03;1708362;84;20986;-42
2021/10/15 06:02:51;;;;;;;19.00;11.25;;;;;;;5.04;100.00;101755.27;1708437;82;20915;-45
2021/10/15 06:16:07;;;;;;;19.63;11.80;;;;;;;5.86;100.00;101769.59;1708047;84;20974;-42
2021/10/15 06:18:38;;;;;;;22.82;12.68;;;;;;;5.86;100.00;101769.59;1708692;84;22242;-43
2021/10/15 06:21:01;;;;;;;24.80;12.63;;;;;;;5.99;100.00;101764.30;1693159;84;20970;-43
2021/10/15 06:23:30;;;;;;;21.75;12.68;;;;;;;6.12;100.00;101765.06;1686655;85;20968;-42
2021/10/15 06:25:57;;;;;;;19.90;13.03;;;;;;;6.26;100.00;101765.34;1698992;84;20932;-44
2021/10/15 06:28:24;;;;;;;19.65;12.45;;;;;;;6.38;100.00;101758.70;1686394;85;20953;-42
2021/10/15 06:30:50;;;;;;;16.37;12.37;;;;;;;6.49;100.00;101764.06;1671420;85;21184;-43
2021/10/15 06:33:16;;;;;;;22.20;12.00;;;;;;;6.62;100.00;101764.75;1659296;85;21008;-42
2021/10/15 06:35:44;;;;;;;19.65;11.83;;;;;;;6.75;100.00;101765.85;1698937;84;21007;-46
2021/10/15 06:38:11;;;;;;;21.42;12.50;;;;;;;6.92;100.00;101767.84;1670712;86;21050;-44
2021/10/15 06:40:38;;;;;;;16.52;12.05;;;;;;;7.08;100.00;101765.99;1686405;85;20992;-44
2021/10/15 06:43:07;;;;;;;19.45;13.53;;;;;;;7.23;100.00;101766.66;1698877;84;21135;-43
2021/10/15 06:45:34;;;;;;;19.95;12.98;;;;;;;7.39;100.00;101769.50;1659251;85;21516;-42
2021/10/15 06:48:01;;;;;;;28.05;13.18;;;;;;;7.55;100.00;101774.47;1650185;84;20885;-43
2021/10/15 06:50:27;;;;;;;20.02;12.80;;;;;;;7.70;100.00;101768.23;1686299;85;21044;-44
2021/10/15 06:52:54;;;;;;;16.55;12.82;;;;;;;7.84;100.00;101771.03;1673214;84;20933;-44
2021/10/15 06:55:22;;;;;;;22.60;11.35;;;;;;;7.98;99.49;101767.36;1686372;85;21149;-44
2021/10/15 06:57:49;;;;;;;14.70;11.25;;;;;;;8.10;98.37;101760.20;1699125;84;20952;-43
2021/10/15 07:00:16;;;;;;;17.30;11.65;;;;;;;8.22;97.25;101765.06;1658772;85;21036;-43
2021/10/15 07:02:42;;;;;;;16.77;11.75;;;;;;;8.35;95.45;101763.08;1672870;84;20939;-45
2021/10/15 07:05:10;;;;;;;17.62;11.93;;;;;;;8.49;94.80;101761.95;1686452;85;21343;-43
2021/10/15 07:07:36;;;;;;;19.48;12.60;;;;;;;8.58;93.51;101764.65;1698738;83;21040;-43
2021/10/15 07:10:06;;;;;;;18.82;11.05;;;;;;;8.67;91.18;101772.04;1670605;85;21003;-43
2021/10/15 07:12:42;;;;;;;19.57;11.90;;;;;;;8.79;89.97;101771.30;1670745;86;21028;-43
2021/10/15 07:15:14;;;;;;;22.87;12.68;;;;;;;8.89;88.58;101766.24;1686327;85;21484;-44
2021/10/15 07:17:41;;;;;;;24.05;12.37;;;;;;;9.00;87.67;101764.20;1671314;85;21457;-44
2021/10/15 07:20:10;;;;;;;19.23;11.10;;;;;;;9.16;86.78;101766.49;1671554;85;21839;-44
2021/10/15 07:22:37;;;;;;;13.25;10.10;;;;;;;9.30;84.67;101763.58;1686521;82;21004;-43
2021/10/15 07:25:06;;;;;;;8.93;7.45;;;;;;;9.47;82.69;101764.14;1698827;83;20987;-44
2021/10/15 07:27:34;;;;;;;10.45;8.20;;;;;;;9.65;80.05;101755.63;1658984;85;21019;-44
2021/10/15 07:30:04;;;;;;;10.10;7.75;;;;;;;9.78;77.59;101754.86;1698931;84;20976;-44
2021/10/15 07:32:31;;;;;;;12.88;8.93;;;;;;;9.90;75.71;101751.89;1659169;85;21835;-45
2021/10/15 07:34:58;;;;;;;22.93;9.08;;;;;;;10.02;75.07;101749.38;1667626;85;21060;-44
2021/10/15 07:37:25;;;;;;;19.77;8.58;;;;;;;10.12;71.25;101753.29;1698811;84;21498;-44
2021/10/15 07:39:52;;;;;;;15.85;9.60;;;;;;;10.24;71.50;101752.47;1686268;85;21519;-45
2021/10/15 07:42:19;;;;;;;15.20;8.00;;;;;;;10.30;72.29;101741.72;1646236;85;21463;-44
2021/10/15 07:44:45;;;;;;;11.78;7.80;;;;;;;10.44;70.76;101749.97;1671392;85;21895;-43
2021/10/15 07:47:11;;;;;;;16.82;8.55;;;;;;;10.61;69.32;101748.30;1671666;85;21586;-43
2021/10/15 07:49:38;;;;;;;12.25;8.25;;;;;;;10.79;68.72;101744.02;1646182;85;21444;-44
2021/10/15 07:52:06;;;;;;;10.48;8.58;;;;;;;10.95;69.12;101742.30;1671127;85;20918;-44
2021/10/15 07:54:35;;;;;;;14.15;8.90;;;;;;;11.10;68.63;101741.44;1671391;85;21534;-44
2021/10/15 07:57:04;;;;;;;13.45;8.53;;;;;;;11.25;68.39;101739.72;1671744;85;21042;-44
2021/10/15 07:59:32;;;;;;;16.27;8.50;;;;;;;11.39;67.29;101742.30;1647015;85;21352;-45
2021/10/15 08:01:58;;;;;;;13.68;8.50;;;;;;;11.52;67.43;101740.55;1671617;85;21522;-42
2021/10/15 08:04:25;;;;;;;16.00;6.85;;;;;;;11.69;66.55;101734.02;1646206;85;21393;-43
2021/10/15 08:06:51;;;;;;;4.15;3.75;;;;;;;11.88;64.38;101740.00;1671750;85;21351;-45
2021/10/15 08:09:18;;;;;;;6.30;4.12;;;;;;;11.96;61.41;101744.72;1671358;85;21056;-44
2021/10/15 08:11:47;;;;;;;3.98;3.58;;;;;;;11.99;54.85;101743.41;1671359;85;21001;-45
2021/10/15 08:14:13;;;;;;;4.62;4.20;;;;;;;11.98;54.45;101740.39;1698788;84;21044;-43
2021/10/15 08:16:40;;;;;;;4.10;3.70;;;;;;;12.07;54.83;101738.23;1686707;85;21518;-44
2021/10/15 08:19:06;;;;;;;6.42;3.75;;;;;;;12.11;53.38;101735.20;1698765;84;20968;-44
2021/10/15 08:21:32;;;;;;;3.85;3.30;;;;;;;12.20;55.03;101741.63;1687199;83;21108;-44
2021/10/15 08:23:59;;;;;;;6.92;3.10;;;;;;;12.35;53.38;101732.48;1688185;85;20920;-44
2021/10/15 08:26:25;;;;;;;3.98;3.58;;;;;;;12.64;53.11;101735.78;1688673;85;21076;-44
2021/10/15 08:28:58;;;;;;;4.37;3.47;;;;;;;12.89;51.81;101735.61;1688339;85;20941;-44
2021/10/15 08:31:20;;;;;;;7.90;3.62;;;;;;;13.12;51.60;101728.03;1688080;85;20949;-44
2021/10/15 08:33:46;;;;;;;5.72;3.60;;;;;;;13.42;52.67;101726.89;1688427;85;21145;-45
2021/10/15 08:36:15;;;;;;;3.10;2.90;;;;;;;13.60;49.68;101725.02;1688509;85;21091;-44
2021/10/15 08:38:41;;;;;;;4.72;3.40;;;;;;;13.67;49.14;101726.66;1688675;85;20924;-45
2021/10/15 08:41:07;;;;;;;37.38;5.37;;;;;;;13.74;47.08;101721.80;1688185;85;20877;-44
2021/10/15 08:43:37;;;;;;;7.65;3.65;;;;;;;13.66;46.36;101717.13;1688516;85;20913;-43
2021/10/15 08:46:04;;;;;;;12.45;3.70;;;;;;;13.59;47.20;101711.58;1666032;85;21727;-43
2021/10/15 08:48:31;;;;;;;8.28;3.30;;;;;;;13.69;46.85;101713.19;1688254;85;20945;-43
2021/10/15 08:50:58;;;;;;;39.98;4.20;;;;;;;13.58;45.76;101711.16;1688382;85;20929;-44
2021/10/15 08:53:24;;;;;;;39.15;5.00;;;;;;;13.56;47.66;101709.02;1688347;85;20936;-43
2021/10/15 08:55:51;;;;;;;24.37;4.10;;;;;;;13.72;47.82;101712.31;1688334;84;21084;-44
2021/10/15 08:58:18;;;;;;;18.20;4.50;;;;;;;13.91;47.18;101711.64;1688571;85;21571;-43
2021/10/15 09:00:45;;;;;;;5.75;3.35;;;;;;;14.04;47.29;101704.11;1688502;85;21420;-44
2021/10/15 09:03:21;;;;;;;3.00;2.80;;;;;;;14.12;46.64;101699.23;1688362;85;21598;-43
2021/10/15 09:06:03;;;;;;;3.30;3.00;;;;;;;14.33;45.22;101703.27;1688572;85;20953;-44
2021/10/15 09:08:53;;;;;;;4.47;2.90;;;;;;;14.12;43.27;101702.68;1688272;85;21482;-44
2021/10/15 09:11:41;;;;;;;3.20;2.87;;;;;;;14.13;43.86;101697.05;1666353;85;21113;-44
2021/10/15 09:14:17;;;;;;;2.98;2.77;;;;;;;14.24;42.96;101699.05;1688579;84;20878;-44
2021/10/15 09:17:08;;;;;;;2.80;2.60;;;;;;;14.34;43.31;101700.66;1688750;85;20964;-44
2021/10/15 09:19:42;;;;;;;3.20;2.92;;;;;;;14.41;42.16;101702.73;1666455;85;21403;-44
2021/10/15 09:22:25;;;;;;;3.10;2.90;;;;;;;14.58;42.42;101697.70;1666455;85;21396;-44
2021/10/15 09:25:11;;;;;;;3.60;2.70;;;;;;;14.90;42.54;101688.52;1666470;85;21123;-45
2021/10/15 09:27:40;;;;;;;2.47;2.35;;;;;;;15.12;41.38;101687.72;1688476;85;20961;-45
2021/10/15 09:30:14;;;;;;;3.20;3.00;;;;;;;15.24;40.87;101678.81;1688328;85;20937;-46
2021/10/15 09:32:46;;;;;;;3.12;2.92;;;;;;;15.39;40.77;101677.66;1688478;85;21003;-45
2021/10/15 09:35:24;;;;;;;3.15;2.95;;;;;;;15.50;39.80;101671.78;1688583;85;20957;-44
2021/10/15 09:37:55;;;;;;;4.00;2.90;;;;;;;15.56;40.49;101669.96;1687712;85;21187;-44
2021/10/15 09:40:23;;;;;;;5.65;3.00;;;;;;;15.63;39.54;101665.86;1688276;84;20976;-45
2021/10/15 09:42:56;;;;;;;3.87;2.92;;;;;;;15.66;39.25;101667.56;1666553;85;21450;-45
2021/10/15 09:45:31;;;;;;;3.08;2.87;;;;;;;15.86;39.92;101667.60;1688416;85;20941;-45
2021/10/15 09:47:59;;;;;;;3.85;3.25;;;;;;;16.07;38.49;101674.13;1688298;85;21581;-45
2021/10/15 09:50:32;;;;;;;4.58;2.80;;;;;;;16.11;38.32;101667.94;1666451;85;21052;-44
2021/10/15 09:53:04;;;;;;;3.52;3.22;;;;;;;16.27;39.39;101663.69;1666492;85;20976;-45
2021/10/15 09:55:39;;;;;;;4.45;3.37;;;;;;;16.32;37.87;101670.53;1688604;85;21004;-44
2021/10/15 09:58:19;;;;;;;3.02;2.83;;;;;;;16.42;38.64;101664.64;1688467;85;20973;-45
2021/10/15 10:00:51;;;;;;;3.12;2.92;;;;;;;16.46;39.35;101664.98;1667051;85;21585;-45
2021/10/15 10:03:20;;;;;;;7.37;3.47;;;;;;;16.60;39.44;101666.38;1688446;85;21134;-45
2021/10/15 10:05:47;;;;;;;3.52;3.15;;;;;;;16.61;38.04;101661.56;1688283;84;21483;-45
2021/10/15 10:08:15;;;;;;;4.28;3.40;;;;;;;16.36;38.02;101652.58;1688586;85;21004;-45
2021/10/15 10:10:43;;;;;;;3.22;2.72;;;;;;;16.28;38.01;101654.48;1688253;85;21068;-45
2021/10/15 10:13:13;;;;;;;5.42;3.58;;;;;;;16.40;37.84;101644.19;1688401;85;21007;-47
2021/10/15 10:15:44;;;;;;;3.30;3.00;;;;;;;16.50;37.93;101641.78;1666574;85;21705;-45
2021/10/15 10:18:22;;;;;;;5.05;2.70;;;;;;;16.41;37.79;101635.92;1688267;85;21015;-45
2021/10/15 10:21:07;;;;;;;2.98;2.77;;;;;;;16.43;37.63;101640.66;1684780;85;21542;-45
2021/10/15 10:23:51;;;;;;;4.03;3.37;;;;;;;16.54;38.80;101642.55;1681436;84;21400;-44
2021/10/15 10:26:21;;;;;;;3.50;3.20;;;;;;;16.69;37.14;101641.34;1710971;84;21332;-44
2021/10/15 10:29:04;;;;;;;12.93;4.30;;;;;;;16.74;37.46;101637.28;1710555;84;21180;-45
2021/10/15 10:31:31;;;;;;;13.90;4.20;;;;;;;16.77;36.88;101634.58;1711243;84;20975;-45
2021/10/15 10:34:03;;;;;;;6.40;3.85;;;;;;;16.69;36.99;101635.23;1682329;84;21005;-45
2021/10/15 10:36:33;;;;;;;8.23;3.65;;;;;;;16.56;37.34;101642.09;1710957;84;21010;-46
2021/10/15 10:39:24;;;;;;;3.90;3.60;;;;;;;16.40;37.15;101638.97;1711231;84;20951;-45
2021/10/15 10:42:15;;;;;;;7.90;3.90;;;;;;;16.57;36.97;101630.73;1711003;84;21170;-44
2021/10/15 10:44:59;;;;;;;5.62;3.72;;;;;;;16.89;36.35;101619.89;1710865;84;20919;-45
2021/10/15 10:47:28;;;;;;;9.55;4.37;;;;;;;16.61;35.73;101627.58;1710937;84;21046;-45
2021/10/15 10:50:11;;;;;;;8.90;3.87;;;;;;;16.18;36.70;101629.05;1710984;84;20923;-45
2021/10/15 10:52:49;;;;;;;16.52;4.33;;;;;;;16.13;36.65;101623.52;1711176;84;20967;-45
2021/10/15 10:55:54;;;;;;;17.48;4.78;;;;;;;16.40;37.31;101621.14;1711123;84;21042;-44
2021/10/15 10:58:35;;;;;;;25.68;4.90;;;;;;;16.19;35.58;101624.24;1709187;84;20966;-46
2021/10/15 11:01:28;;;;;;;6.37;3.92;;;;;;;15.88;37.93;101627.95;1626727;86;21498;-45
2021/10/15 11:03:56;;;;;;;9.65;4.20;;;;;;;15.76;37.11;101622.09;1685289;84;20939;-45
2021/10/15 11:06:23;;;;;;;13.83;4.37;;;;;;;15.74;37.54;101623.88;1765491;81;20980;-45
2021/10/15 11:08:51;;;;;;;12.30;4.72;;;;;;;15.79;37.42;101628.58;1765435;80;21463;-44
2021/10/15 11:11:28;;;;;;;6.17;4.25;;;;;;;15.98;37.45;101621.66;1762649;81;21395;-46
2021/10/15 11:13:55;;;;;;;4.08;3.77;;;;;;;16.10;36.56;101615.30;1765691;81;20913;-47
2021/10/15 11:16:26;;;;;;;5.95;3.95;;;;;;;16.29;36.75;101603.95;1737590;81;20858;-45
2021/10/15 11:18:56;;;;;;;5.85;3.67;;;;;;;16.50;36.01;101606.94;1765304;81;20960;-46
2021/10/15 11:21:23;;;;;;;5.08;3.65;;;;;;;16.75;36.22;101607.63;1765343;81;21150;-46
2021/10/15 11:23:49;;;;;;;16.15;4.58;;;;;;;16.90;37.10;101602.43;1748349;81;20983;-44
2021/10/15 11:26:16;;;;;;;4.30;3.85;;;;;;;16.84;35.98;101598.25;1710889;84;21449;-45
2021/10/15 11:28:43;;;;;;;4.83;4.20;;;;;;;16.42;35.44;101605.85;1705527;84;20968;-45
2021/10/15 11:31:12;;;;;;;9.35;4.28;;;;;;;15.82;37.35;101607.22;1685196;84;20921;-45
2021/10/15 11:33:39;;;;;;;12.88;4.70;;;;;;;15.53;38.20;101603.03;1705543;82;21132;-46
2021/10/15 11:36:06;;;;;;;17.02;4.10;;;;;;;15.63;37.59;101603.23;1705372;84;20933;-46
2021/10/15 11:38:33;;;;;;;8.28;3.95;;;;;;;15.89;38.16;101600.52;1685378;84;21561;-46
2021/10/15 11:41:09;;;;;;;9.50;4.78;;;;;;;16.22;38.63;101599.35;1705451;84;21451;-46
2021/10/15 11:43:38;;;;;;;10.20;4.25;;;;;;;16.48;37.39;101594.36;1705552;82;21565;-46
2021/10/15 11:46:14;;;;;;;9.05;4.28;;;;;;;16.44;36.59;101593.60;1705351;84;21154;-46